sensor_id;sensor_type;location;lat;lon;timestamp;pressure;altitude;pressure_sealevel;temperature;humidity
18504;BME280;9381;54.244;10.074;2024-01-30T00:00:50;102200.44;;;9.96;92.48
18504;BME280;9381;54.244;10.074;2024-01-30T00:05:50;102202.34;;;9.95;92.79
18504;BME280;9381;54.244;10.074;2024-01-30T00:10:51;102207.75;;;9.95;92.58
18504;BME280;9381;54.244;10.074;2024-01-30T00:15:51;102196.72;;;9.97;92.55
18504;BME280;9381;54.244;10.074;2024-01-30T00:20:51;102190.66;;;9.95;92.36
18504;BME280;9381;54.244;10.074;2024-01-30T00:25:52;102188.81;;;9.95;93.00
18504;BME280;9381;54.244;10.074;2024-01-30T00:30:52;102190.72;;;9.87;92.77
18504;BME280;9381;54.244;10.074;2024-01-30T00:35:52;102180.88;;;9.94;92.43
18504;BME280;9381;54.244;10.074;2024-01-30T00:40:53;102181.91;;;9.93;92.77
18504;BME280;9381;54.244;10.074;2024-01-30T00:45:53;102189.28;;;9.99;93.05
18504;BME280;9381;54.244;10.074;2024-01-30T00:50:54;102187.94;;;10.03;93.32
18504;BME280;9381;54.244;10.074;2024-01-30T00:55:54;102194.00;;;10.05;93.12
18504;BME280;9381;54.244;10.074;2024-01-30T01:00:54;102202.44;;;10.10;92.96
18504;BME280;9381;54.244;10.074;2024-01-30T01:05:55;102196.06;;;10.03;93.61
18504;BME280;9381;54.244;10.074;2024-01-30T01:10:55;102205.16;;;10.02;93.75
18504;BME280;9381;54.244;10.074;2024-01-30T01:15:55;102195.16;;;10.10;94.18
18504;BME280;9381;54.244;10.074;2024-01-30T01:20:56;102199.69;;;10.18;94.38
18504;BME280;9381;54.244;10.074;2024-01-30T01:25:56;102193.81;;;10.14;94.16
18504;BME280;9381;54.244;10.074;2024-01-30T01:30:56;102192.59;;;10.17;94.07
18504;BME280;9381;54.244;10.074;2024-01-30T01:36:01;102184.13;;;10.20;93.90
18504;BME280;9381;54.244;10.074;2024-01-30T01:41:02;102184.63;;;10.23;93.97
18504;BME280;9381;54.244;10.074;2024-01-30T01:46:03;102167.25;;;10.18;93.36
18504;BME280;9381;54.244;10.074;2024-01-30T01:51:03;102162.91;;;10.31;92.26
18504;BME280;9381;54.244;10.074;2024-01-30T01:56:05;102163.09;;;10.30;92.57
18504;BME280;9381;54.244;10.074;2024-01-30T02:01:07;102152.94;;;10.32;92.70
18504;BME280;9381;54.244;10.074;2024-01-30T02:06:07;102149.09;;;10.26;93.26
18504;BME280;9381;54.244;10.074;2024-01-30T02:11:08;102152.94;;;10.32;92.76
18504;BME280;9381;54.244;10.074;2024-01-30T02:16:10;102145.63;;;10.18;93.08
18504;BME280;9381;54.244;10.074;2024-01-30T02:21:10;102149.03;;;10.12;93.42
18504;BME280;9381;54.244;10.074;2024-01-30T02:26:11;102143.31;;;10.07;93.29
18504;BME280;9381;54.244;10.074;2024-01-30T02:31:12;102143.69;;;9.96;93.69
18504;BME280;9381;54.244;10.074;2024-01-30T02:36:12;102129.09;;;9.82;93.61
18504;BME280;9381;54.244;10.074;2024-01-30T02:41:13;102120.69;;;9.77;94.51
18504;BME280;9381;54.244;10.074;2024-01-30T02:46:13;102103.78;;;9.75;95.59
18504;BME280;9381;54.244;10.074;2024-01-30T02:51:13;102099.53;;;9.81;95.23
18504;BME280;9381;54.244;10.074;2024-01-30T02:56:14;102086.53;;;9.76;95.01
18504;BME280;9381;54.244;10.074;2024-01-30T03:01:14;102087.44;;;9.69;95.94
18504;BME280;9381;54.244;10.074;2024-01-30T03:06:15;102080.69;;;9.73;95.59
18504;BME280;9381;54.244;10.074;2024-01-30T03:11:17;102066.25;;;9.58;95.63
18504;BME280;9381;54.244;10.074;2024-01-30T03:16:17;102075.38;;;9.57;96.07
18504;BME280;9381;54.244;10.074;2024-01-30T03:21:18;102071.94;;;9.63;94.40
18504;BME280;9381;54.244;10.074;2024-01-30T03:26:18;102084.84;;;9.53;94.08
18504;BME280;9381;54.244;10.074;2024-01-30T03:31:19;102083.59;;;9.33;95.08
18504;BME280;9381;54.244;10.074;2024-01-30T03:36:19;102082.03;;;9.38;94.15
18504;BME280;9381;54.244;10.074;2024-01-30T03:41:20;102086.00;;;9.28;93.67
18504;BME280;9381;54.244;10.074;2024-01-30T03:46:20;102088.72;;;9.20;92.82
18504;BME280;9381;54.244;10.074;2024-01-30T03:51:21;102078.78;;;9.12;93.37
18504;BME280;9381;54.244;10.074;2024-01-30T03:56:21;102078.47;;;9.07;93.38
18504;BME280;9381;54.244;10.074;2024-01-30T04:01:21;102077.34;;;8.94;93.56
18504;BME280;9381;54.244;10.074;2024-01-30T04:06:22;102083.09;;;8.91;92.90
18504;BME280;9381;54.244;10.074;2024-01-30T04:11:22;102075.03;;;8.83;92.92
18504;BME280;9381;54.244;10.074;2024-01-30T04:16:23;102069.81;;;8.73;94.37
18504;BME280;9381;54.244;10.074;2024-01-30T04:21:23;102057.47;;;8.79;93.19
18504;BME280;9381;54.244;10.074;2024-01-30T04:26:24;102060.69;;;8.74;93.21
18504;BME280;9381;54.244;10.074;2024-01-30T04:31:24;102064.94;;;8.61;93.35
18504;BME280;9381;54.244;10.074;2024-01-30T04:36:24;102064.13;;;8.53;93.67
18504;BME280;9381;54.244;10.074;2024-01-30T04:41:25;102059.25;;;8.48;94.03
18504;BME280;9381;54.244;10.074;2024-01-30T04:46:26;102073.41;;;8.42;94.00
18504;BME280;9381;54.244;10.074;2024-01-30T04:51:26;102074.75;;;8.38;94.47
18504;BME280;9381;54.244;10.074;2024-01-30T04:56:27;102071.41;;;8.36;93.33
18504;BME280;9381;54.244;10.074;2024-01-30T05:01:27;102064.84;;;8.23;94.61
18504;BME280;9381;54.244;10.074;2024-01-30T05:06:28;102052.53;;;8.28;93.41
18504;BME280;9381;54.244;10.074;2024-01-30T05:11:28;102041.06;;;8.34;93.88
18504;BME280;9381;54.244;10.074;2024-01-30T05:16:28;102037.84;;;8.39;92.72
18504;BME280;9381;54.244;10.074;2024-01-30T05:21:28;102053.72;;;8.26;92.71
18504;BME280;9381;54.244;10.074;2024-01-30T05:26:29;102051.16;;;8.24;93.77
18504;BME280;9381;54.244;10.074;2024-01-30T05:31:30;102043.41;;;8.13;92.84
18504;BME280;9381;54.244;10.074;2024-01-30T05:36:30;102040.59;;;8.23;93.27
18504;BME280;9381;54.244;10.074;2024-01-30T05:41:31;102026.72;;;8.10;93.44
18504;BME280;9381;54.244;10.074;2024-01-30T05:46:31;102032.31;;;8.08;95.02
18504;BME280;9381;54.244;10.074;2024-01-30T05:51:31;102017.16;;;8.23;94.15
18504;BME280;9381;54.244;10.074;2024-01-30T05:56:32;102025.75;;;8.19;94.17
18504;BME280;9381;54.244;10.074;2024-01-30T06:01:32;102025.22;;;8.31;93.90
18504;BME280;9381;54.244;10.074;2024-01-30T06:06:33;102040.75;;;8.21;93.25
18504;BME280;9381;54.244;10.074;2024-01-30T06:11:33;102043.75;;;8.18;92.62
18504;BME280;9381;54.244;10.074;2024-01-30T06:16:34;102038.69;;;8.15;92.33
18504;BME280;9381;54.244;10.074;2024-01-30T06:21:34;102042.38;;;8.06;93.08
18504;BME280;9381;54.244;10.074;2024-01-30T06:26:36;102036.84;;;7.92;93.56
18504;BME280;9381;54.244;10.074;2024-01-30T06:31:40;102018.47;;;7.95;93.32
18504;BME280;9381;54.244;10.074;2024-01-30T06:36:41;102022.34;;;7.93;93.84
18504;BME280;9381;54.244;10.074;2024-01-30T06:41:42;102020.00;;;7.90;93.72
18504;BME280;9381;54.244;10.074;2024-01-30T06:46:42;102016.47;;;7.81;94.71
18504;BME280;9381;54.244;10.074;2024-01-30T06:51:43;102011.09;;;7.81;95.67
18504;BME280;9381;54.244;10.074;2024-01-30T06:56:43;102005.34;;;7.84;97.28
18504;BME280;9381;54.244;10.074;2024-01-30T07:01:43;102002.66;;;7.92;97.11
18504;BME280;9381;54.244;10.074;2024-01-30T07:06:44;102005.53;;;7.91;97.87
18504;BME280;9381;54.244;10.074;2024-01-30T07:11:44;102014.78;;;7.96;98.20
18504;BME280;9381;54.244;10.074;2024-01-30T07:16:45;102005.16;;;7.94;97.46
18504;BME280;9381;54.244;10.074;2024-01-30T07:21:45;102009.06;;;7.99;97.64
18504;BME280;9381;54.244;10.074;2024-01-30T07:26:46;102006.53;;;8.06;97.38
18504;BME280;9381;54.244;10.074;2024-01-30T07:31:46;101998.59;;;8.12;97.42
18504;BME280;9381;54.244;10.074;2024-01-30T07:36:46;101992.72;;;8.09;97.89
18504;BME280;9381;54.244;10.074;2024-01-30T07:41:47;101990.88;;;8.17;97.23
18504;BME280;9381;54.244;10.074;2024-01-30T07:46:47;101992.88;;;8.15;97.35
18504;BME280;9381;54.244;10.074;2024-01-30T07:51:47;101987.47;;;8.15;98.48
18504;BME280;9381;54.244;10.074;2024-01-30T07:56:48;101978.38;;;8.32;97.46
18504;BME280;9381;54.244;10.074;2024-01-30T08:01:48;101972.63;;;8.35;98.22
18504;BME280;9381;54.244;10.074;2024-01-30T08:06:48;101976.69;;;8.39;99.07
18504;BME280;9381;54.244;10.074;2024-01-30T08:11:49;101958.47;;;8.49;99.57
18504;BME280;9381;54.244;10.074;2024-01-30T08:16:49;101957.06;;;8.61;98.95
18504;BME280;9381;54.244;10.074;2024-01-30T08:21:49;101945.22;;;8.70;99.09
18504;BME280;9381;54.244;10.074;2024-01-30T08:26:50;101933.72;;;8.84;98.13
18504;BME280;9381;54.244;10.074;2024-01-30T08:31:50;101929.13;;;8.84;98.47
18504;BME280;9381;54.244;10.074;2024-01-30T08:36:50;101943.69;;;9.06;98.19
18504;BME280;9381;54.244;10.074;2024-01-30T08:41:51;101932.81;;;9.22;97.12
18504;BME280;9381;54.244;10.074;2024-01-30T08:46:51;101924.00;;;9.28;96.25
18504;BME280;9381;54.244;10.074;2024-01-30T08:51:52;101920.94;;;9.31;96.11
18504;BME280;9381;54.244;10.074;2024-01-30T08:56:52;101919.53;;;9.35;96.83
18504;BME280;9381;54.244;10.074;2024-01-30T09:01:53;101941.13;;;9.35;97.05
18504;BME280;9381;54.244;10.074;2024-01-30T09:06:55;101949.56;;;9.40;96.28
18504;BME280;9381;54.244;10.074;2024-01-30T09:11:55;101966.72;;;9.47;95.55
18504;BME280;9381;54.244;10.074;2024-01-30T09:16:56;101974.69;;;9.18;96.83
18504;BME280;9381;54.244;10.074;2024-01-30T09:21:56;101957.66;;;9.40;97.75
18504;BME280;9381;54.244;10.074;2024-01-30T09:26:56;101962.91;;;9.41;97.10
18504;BME280;9381;54.244;10.074;2024-01-30T09:31:57;101958.56;;;9.55;96.58
18504;BME280;9381;54.244;10.074;2024-01-30T09:36:59;101949.19;;;9.65;96.05
18504;BME280;9381;54.244;10.074;2024-01-30T09:42:32;101932.69;;;9.83;95.92
18504;BME280;9381;54.244;10.074;2024-01-30T09:47:41;101912.28;;;9.95;95.51
18504;BME280;9381;54.244;10.074;2024-01-30T09:52:44;101915.41;;;10.06;95.44
18504;BME280;9381;54.244;10.074;2024-01-30T09:57:44;101941.84;;;9.96;95.82
18504;BME280;9381;54.244;10.074;2024-01-30T10:02:45;101945.06;;;10.14;95.58
18504;BME280;9381;54.244;10.074;2024-01-30T10:07:56;101937.63;;;10.31;94.82
18504;BME280;9381;54.244;10.074;2024-01-30T10:12:56;101931.91;;;10.26;94.50
18504;BME280;9381;54.244;10.074;2024-01-30T10:17:57;101927.28;;;10.49;94.46
18504;BME280;9381;54.244;10.074;2024-01-30T10:22:58;101929.41;;;10.68;94.15
18504;BME280;9381;54.244;10.074;2024-01-30T10:27:58;101926.69;;;10.68;94.11
18504;BME280;9381;54.244;10.074;2024-01-30T10:32:59;101907.91;;;10.81;93.89
18504;BME280;9381;54.244;10.074;2024-01-30T10:37:59;101907.75;;;11.03;92.44
18504;BME280;9381;54.244;10.074;2024-01-30T10:43:01;101893.16;;;11.19;92.14
18504;BME280;9381;54.244;10.074;2024-01-30T10:48:04;101889.47;;;11.26;91.61
18504;BME280;9381;54.244;10.074;2024-01-30T10:53:05;101882.84;;;11.29;90.96
18504;BME280;9381;54.244;10.074;2024-01-30T10:58:07;101878.63;;;11.47;90.13
18504;BME280;9381;54.244;10.074;2024-01-30T11:03:08;101863.38;;;11.40;90.44
18504;BME280;9381;54.244;10.074;2024-01-30T11:08:13;101869.03;;;11.66;89.72
18504;BME280;9381;54.244;10.074;2024-01-30T11:13:14;101893.56;;;11.58;90.38
18504;BME280;9381;54.244;10.074;2024-01-30T11:18:24;101906.72;;;11.40;90.59
18504;BME280;9381;54.244;10.074;2024-01-30T11:23:26;101885.53;;;11.50;90.70
18504;BME280;9381;54.244;10.074;2024-01-30T11:28:32;101895.47;;;11.43;90.81
18504;BME280;9381;54.244;10.074;2024-01-30T11:33:34;101895.16;;;11.52;90.29
18504;BME280;9381;54.244;10.074;2024-01-30T11:38:34;101882.50;;;11.59;90.20
18504;BME280;9381;54.244;10.074;2024-01-30T11:43:34;101884.69;;;11.49;91.01
18504;BME280;9381;54.244;10.074;2024-01-30T11:48:35;101868.25;;;11.51;91.02
18504;BME280;9381;54.244;10.074;2024-01-30T11:53:35;101848.00;;;11.68;91.43
18504;BME280;9381;54.244;10.074;2024-01-30T11:58:36;101846.56;;;11.71;91.18
18504;BME280;9381;54.244;10.074;2024-01-30T12:03:36;101835.72;;;11.71;91.90
18504;BME280;9381;54.244;10.074;2024-01-30T12:08:36;101861.75;;;11.66;90.74
18504;BME280;9381;54.244;10.074;2024-01-30T12:13:37;101864.31;;;11.53;92.03
18504;BME280;9381;54.244;10.074;2024-01-30T12:18:37;101846.19;;;11.74;91.65
18504;BME280;9381;54.244;10.074;2024-01-30T12:23:38;101852.53;;;11.61;92.44
18504;BME280;9381;54.244;10.074;2024-01-30T12:28:48;101832.50;;;11.82;91.67
18504;BME280;9381;54.244;10.074;2024-01-30T12:33:49;101817.41;;;11.73;92.23
18504;BME280;9381;54.244;10.074;2024-01-30T12:38:50;101829.59;;;11.90;91.66
18504;BME280;9381;54.244;10.074;2024-01-30T12:43:50;101830.88;;;11.67;92.48
18504;BME280;9381;54.244;10.074;2024-01-30T12:48:51;101830.69;;;11.68;93.39
18504;BME280;9381;54.244;10.074;2024-01-30T12:53:51;101836.28;;;11.88;92.77
18504;BME280;9381;54.244;10.074;2024-01-30T12:58:52;101826.25;;;11.88;92.35
18504;BME280;9381;54.244;10.074;2024-01-30T13:03:52;101826.03;;;11.83;93.08
18504;BME280;9381;54.244;10.074;2024-01-30T13:08:53;101837.16;;;11.68;93.76
18504;BME280;9381;54.244;10.074;2024-01-30T13:13:53;101840.28;;;11.65;94.87
18504;BME280;9381;54.244;10.074;2024-01-30T13:18:54;101835.34;;;11.74;94.69
18504;BME280;9381;54.244;10.074;2024-01-30T13:23:55;101834.94;;;11.77;94.75
18504;BME280;9381;54.244;10.074;2024-01-30T13:28:56;101826.06;;;11.63;95.87
18504;BME280;9381;54.244;10.074;2024-01-30T13:33:56;101823.94;;;11.58;95.90
18504;BME280;9381;54.244;10.074;2024-01-30T13:38:56;101824.06;;;11.71;96.20
18504;BME280;9381;54.244;10.074;2024-01-30T13:43:58;101817.78;;;11.70;96.12
18504;BME280;9381;54.244;10.074;2024-01-30T13:48:58;101816.16;;;11.76;95.92
18504;BME280;9381;54.244;10.074;2024-01-30T13:53:58;101807.84;;;11.77;96.29
18504;BME280;9381;54.244;10.074;2024-01-30T13:58:59;101807.88;;;11.84;96.00
18504;BME280;9381;54.244;10.074;2024-01-30T14:04:01;101797.47;;;11.87;96.02
18504;BME280;9381;54.244;10.074;2024-01-30T14:09:01;101791.47;;;11.98;96.34
18504;BME280;9381;54.244;10.074;2024-01-30T14:14:02;101792.34;;;11.99;96.66
18504;BME280;9381;54.244;10.074;2024-01-30T14:19:02;101790.69;;;11.70;98.35
18504;BME280;9381;54.244;10.074;2024-01-30T14:24:03;101788.69;;;11.79;98.92
18504;BME280;9381;54.244;10.074;2024-01-30T14:29:03;101790.22;;;11.94;98.96
18504;BME280;9381;54.244;10.074;2024-01-30T14:34:03;101794.34;;;11.90;99.20
18504;BME280;9381;54.244;10.074;2024-01-30T14:39:04;101794.59;;;11.95;98.89
18504;BME280;9381;54.244;10.074;2024-01-30T14:44:04;101802.09;;;11.93;99.00
18504;BME280;9381;54.244;10.074;2024-01-30T14:49:05;101814.63;;;11.94;99.52
18504;BME280;9381;54.244;10.074;2024-01-30T14:54:06;101814.69;;;12.07;98.54
18504;BME280;9381;54.244;10.074;2024-01-30T14:59:07;101808.47;;;12.13;98.46
18504;BME280;9381;54.244;10.074;2024-01-30T15:04:07;101809.22;;;12.01;99.60
18504;BME280;9381;54.244;10.074;2024-01-30T15:09:07;101815.50;;;12.01;99.42
18504;BME280;9381;54.244;10.074;2024-01-30T15:14:08;101805.44;;;11.95;100.00
18504;BME280;9381;54.244;10.074;2024-01-30T15:19:08;101808.78;;;11.97;100.00
18504;BME280;9381;54.244;10.074;2024-01-30T15:24:08;101802.16;;;12.06;100.00
18504;BME280;9381;54.244;10.074;2024-01-30T15:29:09;101811.03;;;11.87;100.00
18504;BME280;9381;54.244;10.074;2024-01-30T15:34:09;101800.81;;;11.89;100.00
18504;BME280;9381;54.244;10.074;2024-01-30T15:39:09;101805.50;;;12.08;100.00
18504;BME280;9381;54.244;10.074;2024-01-30T15:44:11;101808.19;;;12.02;100.00
18504;BME280;9381;54.244;10.074;2024-01-30T15:49:11;101800.81;;;11.89;100.00
18504;BME280;9381;54.244;10.074;2024-01-30T15:54:12;101819.47;;;12.05;100.00
18504;BME280;9381;54.244;10.074;2024-01-30T15:59:12;101807.59;;;12.06;100.00
18504;BME280;9381;54.244;10.074;2024-01-30T16:04:12;101813.00;;;12.00;100.00
18504;BME280;9381;54.244;10.074;2024-01-30T16:09:13;101809.72;;;12.11;100.00
18504;BME280;9381;54.244;10.074;2024-01-30T16:14:14;101812.38;;;12.04;100.00
18504;BME280;9381;54.244;10.074;2024-01-30T16:19:15;101821.75;;;12.02;100.00
18504;BME280;9381;54.244;10.074;2024-01-30T16:24:15;101814.75;;;12.14;100.00
18504;BME280;9381;54.244;10.074;2024-01-30T16:29:15;101817.69;;;12.25;100.00
18504;BME280;9381;54.244;10.074;2024-01-30T16:34:16;101831.03;;;12.14;100.00
18504;BME280;9381;54.244;10.074;2024-01-30T16:39:16;101818.44;;;12.06;100.00
18504;BME280;9381;54.244;10.074;2024-01-30T16:44:16;101828.56;;;12.25;100.00
18504;BME280;9381;54.244;10.074;2024-01-30T16:49:17;101828.97;;;12.22;100.00
18504;BME280;9381;54.244;10.074;2024-01-30T16:54:18;101829.19;;;12.27;100.00
18504;BME280;9381;54.244;10.074;2024-01-30T16:59:18;101825.53;;;12.07;100.00
18504;BME280;9381;54.244;10.074;2024-01-30T17:04:19;101832.22;;;12.05;100.00
18504;BME280;9381;54.244;10.074;2024-01-30T17:09:21;101828.50;;;12.12;100.00
18504;BME280;9381;54.244;10.074;2024-01-30T17:14:22;101835.59;;;12.13;100.00
18504;BME280;9381;54.244;10.074;2024-01-30T17:19:22;101834.75;;;12.13;100.00
18504;BME280;9381;54.244;10.074;2024-01-30T17:24:23;101842.06;;;11.85;100.00
18504;BME280;9381;54.244;10.074;2024-01-30T17:29:23;101838.94;;;12.15;100.00
18504;BME280;9381;54.244;10.074;2024-01-30T17:34:23;101846.66;;;12.18;100.00
18504;BME280;9381;54.244;10.074;2024-01-30T17:39:24;101854.25;;;11.95;100.00
18504;BME280;9381;54.244;10.074;2024-01-30T17:44:24;101852.44;;;12.02;100.00
18504;BME280;9381;54.244;10.074;2024-01-30T17:49:24;101856.56;;;11.98;99.89
18504;BME280;9381;54.244;10.074;2024-01-30T17:54:29;101856.72;;;11.90;99.08
18504;BME280;9381;54.244;10.074;2024-01-30T17:59:30;101856.56;;;12.32;96.28
18504;BME280;9381;54.244;10.074;2024-01-30T18:04:30;101861.69;;;12.14;96.88
18504;BME280;9381;54.244;10.074;2024-01-30T18:09:30;101874.34;;;12.07;96.48
18504;BME280;9381;54.244;10.074;2024-01-30T18:14:31;101866.97;;;12.29;95.43
18504;BME280;9381;54.244;10.074;2024-01-30T18:19:31;101867.41;;;11.98;97.19
18504;BME280;9381;54.244;10.074;2024-01-30T18:24:32;101859.63;;;11.89;97.85
18504;BME280;9381;54.244;10.074;2024-01-30T18:29:32;101864.31;;;12.01;96.78
18504;BME280;9381;54.244;10.074;2024-01-30T18:34:32;101863.03;;;11.97;96.98
18504;BME280;9381;54.244;10.074;2024-01-30T18:39:33;101867.72;;;11.82;97.17
18504;BME280;9381;54.244;10.074;2024-01-30T18:44:34;101882.59;;;11.93;96.49
18504;BME280;9381;54.244;10.074;2024-01-30T18:49:34;101871.03;;;11.78;97.54
18504;BME280;9381;54.244;10.074;2024-01-30T18:54:35;101882.16;;;11.89;100.00
18504;BME280;9381;54.244;10.074;2024-01-30T18:59:35;101853.81;;;11.44;100.00
18504;BME280;9381;54.244;10.074;2024-01-30T19:04:35;101874.31;;;11.52;100.00
18504;BME280;9381;54.244;10.074;2024-01-30T19:09:36;101875.88;;;11.41;100.00
18504;BME280;9381;54.244;10.074;2024-01-30T19:14:37;101873.63;;;11.44;100.00
18504;BME280;9381;54.244;10.074;2024-01-30T19:19:38;101881.88;;;11.15;100.00
18504;BME280;9381;54.244;10.074;2024-01-30T19:24:39;101879.41;;;11.20;100.00
18504;BME280;9381;54.244;10.074;2024-01-30T19:29:39;101880.44;;;10.98;100.00
18504;BME280;9381;54.244;10.074;2024-01-30T19:34:40;101882.56;;;11.03;100.00
18504;BME280;9381;54.244;10.074;2024-01-30T19:39:42;101879.47;;;11.06;100.00
18504;BME280;9381;54.244;10.074;2024-01-30T19:44:44;101874.78;;;11.14;100.00
18504;BME280;9381;54.244;10.074;2024-01-30T19:49:44;101881.34;;;11.05;100.00
18504;BME280;9381;54.244;10.074;2024-01-30T19:54:44;101890.09;;;10.86;100.00
18504;BME280;9381;54.244;10.074;2024-01-30T19:59:45;101888.44;;;11.06;100.00
18504;BME280;9381;54.244;10.074;2024-01-30T20:04:46;101889.03;;;11.23;100.00
18504;BME280;9381;54.244;10.074;2024-01-30T20:09:46;101915.66;;;11.19;100.00
18504;BME280;9381;54.244;10.074;2024-01-30T20:14:47;101898.28;;;10.93;100.00
18504;BME280;9381;54.244;10.074;2024-01-30T20:19:49;101884.31;;;11.10;100.00
18504;BME280;9381;54.244;10.074;2024-01-30T20:24:53;101926.31;;;10.71;100.00
18504;BME280;9381;54.244;10.074;2024-01-30T20:29:54;101892.38;;;11.04;100.00
18504;BME280;9381;54.244;10.074;2024-01-30T20:34:55;101887.97;;;11.03;100.00
18504;BME280;9381;54.244;10.074;2024-01-30T20:39:57;101910.41;;;10.97;100.00
18504;BME280;9381;54.244;10.074;2024-01-30T20:44:58;101910.94;;;11.07;100.00
18504;BME280;9381;54.244;10.074;2024-01-30T20:49:58;101908.66;;;10.89;100.00
18504;BME280;9381;54.244;10.074;2024-01-30T20:54:59;101907.47;;;11.13;100.00
18504;BME280;9381;54.244;10.074;2024-01-30T20:59:59;101930.91;;;11.06;100.00
18504;BME280;9381;54.244;10.074;2024-01-30T21:04:59;101917.38;;;11.06;100.00
18504;BME280;9381;54.244;10.074;2024-01-30T21:10:00;101916.63;;;10.62;100.00
18504;BME280;9381;54.244;10.074;2024-01-30T21:15:00;101917.53;;;10.69;100.00
18504;BME280;9381;54.244;10.074;2024-01-30T21:20:01;101921.13;;;10.55;100.00
18504;BME280;9381;54.244;10.074;2024-01-30T21:25:03;101924.72;;;10.62;100.00
18504;BME280;9381;54.244;10.074;2024-01-30T21:30:08;101927.38;;;10.41;100.00
18504;BME280;9381;54.244;10.074;2024-01-30T21:35:11;101928.72;;;10.08;100.00
18504;BME280;9381;54.244;10.074;2024-01-30T21:40:11;101942.00;;;10.32;100.00
18504;BME280;9381;54.244;10.074;2024-01-30T21:45:14;101953.25;;;10.06;100.00
18504;BME280;9381;54.244;10.074;2024-01-30T21:50:17;101946.91;;;10.14;100.00
18504;BME280;9381;54.244;10.074;2024-01-30T21:55:18;101941.59;;;10.06;100.00
18504;BME280;9381;54.244;10.074;2024-01-30T22:00:18;101948.03;;;10.05;100.00
18504;BME280;9381;54.244;10.074;2024-01-30T22:05:19;101947.09;;;10.12;100.00
18504;BME280;9381;54.244;10.074;2024-01-30T22:10:19;101947.38;;;10.03;100.00
18504;BME280;9381;54.244;10.074;2024-01-30T22:15:19;101953.47;;;9.97;100.00
18504;BME280;9381;54.244;10.074;2024-01-30T22:20:20;101958.19;;;10.03;100.00
18504;BME280;9381;54.244;10.074;2024-01-30T22:25:20;101966.88;;;10.13;100.00
18504;BME280;9381;54.244;10.074;2024-01-30T22:30:20;101973.13;;;9.91;100.00
18504;BME280;9381;54.244;10.074;2024-01-30T22:35:21;101981.03;;;9.92;100.00
18504;BME280;9381;54.244;10.074;2024-01-30T22:40:21;102006.31;;;9.99;100.00
18504;BME280;9381;54.244;10.074;2024-01-30T22:45:21;102005.50;;;9.76;100.00
18504;BME280;9381;54.244;10.074;2024-01-30T22:50:22;102017.75;;;9.87;100.00
18504;BME280;9381;54.244;10.074;2024-01-30T22:55:22;102017.09;;;9.62;100.00
18504;BME280;9381;54.244;10.074;2024-01-30T23:00:23;102032.16;;;9.79;100.00
18504;BME280;9381;54.244;10.074;2024-01-30T23:05:28;102039.13;;;9.74;100.00
18504;BME280;9381;54.244;10.074;2024-01-30T23:10:30;102047.84;;;9.61;100.00
18504;BME280;9381;54.244;10.074;2024-01-30T23:15:30;102054.59;;;9.57;100.00
18504;BME280;9381;54.244;10.074;2024-01-30T23:20:30;102061.00;;;9.56;100.00
18504;BME280;9381;54.244;10.074;2024-01-30T23:25:31;102068.59;;;9.61;100.00
18504;BME280;9381;54.244;10.074;2024-01-30T23:30:33;102071.41;;;9.45;100.00
18504;BME280;9381;54.244;10.074;2024-01-30T23:35:34;102086.84;;;9.59;100.00
18504;BME280;9381;54.244;10.074;2024-01-30T23:40:34;102086.47;;;9.62;100.00
18504;BME280;9381;54.244;10.074;2024-01-30T23:45:34;102102.81;;;9.38;100.00
18504;BME280;9381;54.244;10.074;2024-01-30T23:50:35;102109.59;;;9.26;100.00
18504;BME280;9381;54.244;10.074;2024-01-30T23:55:35;102116.28;;;9.46;100.00
